Summary for KCOGRAND2

Redlands, Southcamp Road & Dakota Circle, Grand Junction, CO 81507
Join the PWSweather.com Network
View data in metric units
Latest Conditions
Updated 6:50:30 AM MDT Monday, Mar 30, 2015
Data Currently Today's Max Today's Min Today's Average
Temperature 40.5°F4.7°C 52.9°F11.6°C 39.9°F4.4°C 45.7°F7.6°C
Dew Point -9.9°F-23.3°C -8.7°F-22.6°C -10.3°F-23.5°C -9.5°F-23.1°C
Winds 2.0 mph N3.2 kmh N 5.0 mph N8.0 kmh N CalmCalm 2.5 mph4.0 kmh
Wind Gusts 4.0 mph6.4 kmh 7.8 mph12.6 kmh -- 4.9 mph7.9 kmh
Humidity 11% 11% 11% 11%
Pressure 25.19 in853.0 mb 25.19 in853.0 mb 25.16 in852.0 mb 25.17 in852.4 mb
Precipitation 0.00 in0.0 mm - - 0.00 in0.0 mm
Trends
 
Station Profile
Redlands, Southcamp Road & Dakota CircleGrand Junction, CO 81507

Lat: 39.055, Lon: -108.637
Elevation: 4870
Station Type: RadioShack WX200

Detailed Summary for Mon, Mar 30, 2015
Hour (MDT) Temperature Dew Point Humidity Winds Wind Gusts Pressure Precip Precip Rate Daily Precip Total
06:50 AM 40.5°F4.7°C -9.9°F-23.3°C 11% 2.0 mph N3.2 kmh N 4.0 mph6.4 kmh 25.19 in853.0 mb 0.00 in0.0 mm 0.00 in0.0 mm 0.00 in0.0 mm
06:45 AM 42.4°F5.8°C -5537.2°C - 4.0 mph N6.4 kmh N 5.8 mph9.3 kmh 25.19 in853.0 mb 0.00 in0.0 mm 0.00 in0.0 mm 0.00 in0.0 mm
06:40 AM 44.4°F6.9°C -5537.2°C - 5.0 mph N8.0 kmh N 7.8 mph12.6 kmh 25.19 in853.0 mb 0.00 in0.0 mm 0.00 in0.0 mm 0.00 in0.0 mm
06:35 AM 45.0°F7.2°C -5537.2°C - 4.0 mph NE6.4 kmh NE 6.7 mph10.8 kmh 25.19 in853.0 mb 0.00 in0.0 mm 0.00 in0.0 mm 0.00 in0.0 mm
06:30 AM 44.8°F7.1°C -5537.2°C - 3.0 mph ENE4.8 kmh ENE 4.5 mph7.2 kmh 25.19 in853.0 mb 0.00 in0.0 mm 0.00 in0.0 mm 0.00 in0.0 mm
06:25 AM 45.1°F7.3°C -5537.2°C - 4.0 mph ENE6.4 kmh ENE 4.9 mph7.9 kmh 25.19 in853.0 mb 0.00 in0.0 mm 0.00 in0.0 mm 0.00 in0.0 mm
06:20 AM 45.1°F7.3°C -5537.2°C - 3.0 mph ENE4.8 kmh ENE 4.9 mph7.9 kmh 25.19 in853.0 mb 0.00 in0.0 mm 0.00 in0.0 mm 0.00 in0.0 mm
06:15 AM 44.1°F6.7°C -5537.2°C - 2.0 mph NE3.2 kmh NE 4.5 mph7.2 kmh 25.19 in853.0 mb 0.00 in0.0 mm 0.00 in0.0 mm 0.00 in0.0 mm
06:10 AM 43.3°F6.3°C -5537.2°C - 2.0 mph NE3.2 kmh NE 4.0 mph6.4 kmh 25.19 in853.0 mb 0.00 in0.0 mm 0.00 in0.0 mm 0.00 in0.0 mm
06:05 AM 42.4°F5.8°C -5537.2°C - 2.0 mph NE3.2 kmh NE 5.4 mph8.7 kmh 25.19 in853.0 mb 0.00 in0.0 mm 0.00 in0.0 mm 0.00 in0.0 mm
06:00 AM 41.2°F5.1°C -9.2°F-22.9°C 11% 2.0 mph NE3.2 kmh NE 4.5 mph7.2 kmh 25.19 in853.0 mb 0.00 in0.0 mm 0.00 in0.0 mm 0.00 in0.0 mm
05:55 AM 40.6°F4.8°C -9.8°F-23.2°C 11% 2.0 mph NE3.2 kmh NE 4.0 mph6.4 kmh 25.19 in853.0 mb 0.00 in0.0 mm 0.00 in0.0 mm 0.00 in0.0 mm
05:50 AM 40.5°F4.7°C -9.9°F-23.3°C 11% 3.0 mph NE4.8 kmh NE 4.5 mph7.2 kmh 25.19 in853.0 mb 0.00 in0.0 mm 0.00 in0.0 mm 0.00 in0.0 mm
05:45 AM 40.1°F4.5°C -10.1°F-23.4°C 11% 4.0 mph NE6.4 kmh NE 4.0 mph6.4 kmh 25.19 in853.0 mb 0.00 in0.0 mm 0.00 in0.0 mm 0.00 in0.0 mm
05:40 AM 39.9°F4.4°C -10.3°F-23.5°C 11% 3.0 mph NE4.8 kmh NE 5.8 mph9.3 kmh 25.19 in853.0 mb 0.00 in0.0 mm 0.00 in0.0 mm 0.00 in0.0 mm
05:35 AM 40.5°F4.7°C -9.9°F-23.3°C 11% Calm Calm 3.6 mph5.8 kmh 25.19 in853.0 mb 0.00 in0.0 mm 0.00 in0.0 mm 0.00 in0.0 mm
05:30 AM 40.5°F4.7°C -9.9°F-23.3°C 11% Calm Calm 2.7 mph4.3 kmh 25.19 in853.0 mb 0.00 in0.0 mm 0.00 in0.0 mm 0.00 in0.0 mm
05:25 AM 40.3°F4.6°C -9.9°F-23.3°C 11% 1.0 mph NE1.6 kmh NE 3.6 mph5.8 kmh 25.19 in853.0 mb 0.00 in0.0 mm 0.00 in0.0 mm 0.00 in0.0 mm
05:20 AM 41.0°F5.0°C -9.4°F-23.0°C 11% 1.0 mph NE1.6 kmh NE 4.5 mph7.2 kmh 25.19 in853.0 mb 0.00 in0.0 mm 0.00 in0.0 mm 0.00 in0.0 mm
05:15 AM 41.0°F5.0°C -9.4°F-23.0°C 11% 1.0 mph NE1.6 kmh NE 3.6 mph5.8 kmh 25.16 in852.0 mb 0.00 in0.0 mm 0.00 in0.0 mm 0.00 in0.0 mm
05:10 AM 41.9°F5.5°C -8.7°F-22.6°C 11% 2.0 mph NE3.2 kmh NE 3.6 mph5.8 kmh 25.16 in852.0 mb 0.00 in0.0 mm 0.00 in0.0 mm 0.00 in0.0 mm
05:05 AM 41.9°F5.5°C -8.7°F-22.6°C 11% 2.0 mph NE3.2 kmh NE 4.0 mph6.4 kmh 25.16 in852.0 mb 0.00 in0.0 mm 0.00 in0.0 mm 0.00 in0.0 mm
05:00 AM 41.7°F5.4°C -8.9°F-22.7°C 11% 1.0 mph ENE1.6 kmh ENE 3.1 mph5.0 kmh 25.16 in852.0 mb 0.00 in0.0 mm 0.00 in0.0 mm 0.00 in0.0 mm
04:55 AM 41.5°F5.3°C -9.0°F-22.8°C 11% 2.0 mph ENE3.2 kmh ENE 5.8 mph9.3 kmh 25.16 in852.0 mb 0.00 in0.0 mm 0.00 in0.0 mm 0.00 in0.0 mm
04:50 AM 41.2°F5.1°C -9.2°F-22.9°C 11% 3.0 mph ENE4.8 kmh ENE 4.9 mph7.9 kmh 25.16 in852.0 mb 0.00 in0.0 mm 0.00 in0.0 mm 0.00 in0.0 mm
04:45 AM 42.1°F5.6°C -5537.2°C - 2.0 mph ENE3.2 kmh ENE 5.4 mph8.7 kmh 25.16 in852.0 mb 0.00 in0.0 mm 0.00 in0.0 mm 0.00 in0.0 mm
04:40 AM 43.2°F6.2°C -5537.2°C - 2.0 mph ENE3.2 kmh ENE 4.5 mph7.2 kmh 25.16 in852.0 mb 0.00 in0.0 mm 0.00 in0.0 mm 0.00 in0.0 mm
04:35 AM 43.2°F6.2°C -5537.2°C - 4.0 mph NE6.4 kmh NE 5.4 mph8.7 kmh 25.16 in852.0 mb 0.00 in0.0 mm 0.00 in0.0 mm 0.00 in0.0 mm
04:30 AM 44.6°F7.0°C -5537.2°C - 5.0 mph N8.0 kmh N 6.7 mph10.8 kmh 25.16 in852.0 mb 0.00 in0.0 mm 0.00 in0.0 mm 0.00 in0.0 mm
04:25 AM 46.6°F8.1°C -5537.2°C - 5.0 mph N8.0 kmh N 6.9 mph11.1 kmh 25.16 in852.0 mb 0.00 in0.0 mm 0.00 in0.0 mm 0.00 in0.0 mm
04:20 AM 45.9°F7.7°C -5537.2°C - 5.0 mph N8.0 kmh N 6.9 mph11.1 kmh 25.16 in852.0 mb 0.00 in0.0 mm 0.00 in0.0 mm 0.00 in0.0 mm
04:15 AM 43.0°F6.1°C -5537.2°C - 5.0 mph N8.0 kmh N 6.7 mph10.8 kmh 25.16 in852.0 mb 0.00 in0.0 mm 0.00 in0.0 mm 0.00 in0.0 mm
04:10 AM 43.3°F6.3°C -5537.2°C - 4.0 mph NNE6.4 kmh NNE 6.3 mph10.1 kmh 25.16 in852.0 mb 0.00 in0.0 mm 0.00 in0.0 mm 0.00 in0.0 mm
04:05 AM 43.3°F6.3°C -5537.2°C - 3.0 mph NNE4.8 kmh NNE 5.4 mph8.7 kmh 25.16 in852.0 mb 0.00 in0.0 mm 0.00 in0.0 mm 0.00 in0.0 mm
04:00 AM 43.2°F6.2°C -5537.2°C - 3.0 mph N4.8 kmh N 5.8 mph9.3 kmh 25.16 in852.0 mb 0.00 in0.0 mm 0.00 in0.0 mm 0.00 in0.0 mm
03:55 AM 43.3°F6.3°C -5537.2°C - 4.0 mph N6.4 kmh N 5.8 mph9.3 kmh 25.16 in852.0 mb 0.00 in0.0 mm 0.00 in0.0 mm 0.00 in0.0 mm
03:50 AM 43.5°F6.4°C -5537.2°C - 4.0 mph N6.4 kmh N 5.8 mph9.3 kmh 25.16 in852.0 mb 0.00 in0.0 mm 0.00 in0.0 mm 0.00 in0.0 mm
03:45 AM 45.0°F7.2°C -5537.2°C - 4.0 mph NNE6.4 kmh NNE 6.3 mph10.1 kmh 25.16 in852.0 mb 0.00 in0.0 mm 0.00 in0.0 mm 0.00 in0.0 mm
03:40 AM 46.6°F8.1°C -5537.2°C - 3.0 mph NNE4.8 kmh NNE 4.9 mph7.9 kmh 25.16 in852.0 mb 0.00 in0.0 mm 0.00 in0.0 mm 0.00 in0.0 mm
03:35 AM 45.3°F7.4°C -5537.2°C - 3.0 mph NNE4.8 kmh NNE 4.5 mph7.2 kmh 25.16 in852.0 mb 0.00 in0.0 mm 0.00 in0.0 mm 0.00 in0.0 mm
03:30 AM 45.3°F7.4°C -5537.2°C - 3.0 mph NNE4.8 kmh NNE 4.0 mph6.4 kmh 25.16 in852.0 mb 0.00 in0.0 mm 0.00 in0.0 mm 0.00 in0.0 mm
03:25 AM 44.1°F6.7°C -5537.2°C - 3.0 mph NNE4.8 kmh NNE 4.5 mph7.2 kmh 25.16 in852.0 mb 0.00 in0.0 mm 0.00 in0.0 mm 0.00 in0.0 mm
03:20 AM 43.9°F6.6°C -5537.2°C - 2.0 mph NNE3.2 kmh NNE 4.0 mph6.4 kmh 25.16 in852.0 mb 0.00 in0.0 mm 0.00 in0.0 mm 0.00 in0.0 mm
03:15 AM 44.8°F7.1°C -5537.2°C - 1.0 mph NNE1.6 kmh NNE 4.5 mph7.2 kmh 25.16 in852.0 mb 0.00 in0.0 mm 0.00 in0.0 mm 0.00 in0.0 mm
03:10 AM 45.1°F7.3°C -5537.2°C - Calm Calm 3.6 mph5.8 kmh 25.16 in852.0 mb 0.00 in0.0 mm 0.00 in0.0 mm 0.00 in0.0 mm
03:05 AM 44.2°F6.8°C -5537.2°C - 1.0 mph NNE1.6 kmh NNE 2.7 mph4.3 kmh 25.16 in852.0 mb 0.00 in0.0 mm 0.00 in0.0 mm 0.00 in0.0 mm
03:00 AM 45.0°F7.2°C -5537.2°C - 1.0 mph NNE1.6 kmh NNE 4.5 mph7.2 kmh 25.16 in852.0 mb 0.00 in0.0 mm 0.00 in0.0 mm 0.00 in0.0 mm
02:55 AM 46.0°F7.8°C -5537.2°C - 2.0 mph NNE3.2 kmh NNE 4.9 mph7.9 kmh 25.16 in852.0 mb 0.00 in0.0 mm 0.00 in0.0 mm 0.00 in0.0 mm
02:50 AM 46.2°F7.9°C -5537.2°C - 3.0 mph NNE4.8 kmh NNE 3.6 mph5.8 kmh 25.16 in852.0 mb 0.00 in0.0 mm 0.00 in0.0 mm 0.00 in0.0 mm
02:45 AM 46.0°F7.8°C -5537.2°C - 3.0 mph NNE4.8 kmh NNE 5.8 mph9.3 kmh 25.16 in852.0 mb 0.00 in0.0 mm 0.00 in0.0 mm 0.00 in0.0 mm
02:40 AM 45.5°F7.5°C -5537.2°C - 2.0 mph NNE3.2 kmh NNE 4.9 mph7.9 kmh 25.16 in852.0 mb 0.00 in0.0 mm 0.00 in0.0 mm 0.00 in0.0 mm
02:35 AM 45.3°F7.4°C -5537.2°C - 3.0 mph NNE4.8 kmh NNE 4.5 mph7.2 kmh 25.16 in852.0 mb 0.00 in0.0 mm 0.00 in0.0 mm 0.00 in0.0 mm
02:30 AM 46.2°F7.9°C -5537.2°C - 4.0 mph NE6.4 kmh NE 6.3 mph10.1 kmh 25.16 in852.0 mb 0.00 in0.0 mm 0.00 in0.0 mm 0.00 in0.0 mm
02:25 AM 46.4°F8.0°C -5537.2°C - 3.0 mph E4.8 kmh E 6.9 mph11.1 kmh 25.16 in852.0 mb 0.00 in0.0 mm 0.00 in0.0 mm 0.00 in0.0 mm
02:20 AM 48.6°F9.2°C -5537.2°C - 1.0 mph E1.6 kmh E 4.5 mph7.2 kmh 25.16 in852.0 mb 0.00 in0.0 mm 0.00 in0.0 mm 0.00 in0.0 mm
02:15 AM 49.6°F9.8°C -5537.2°C - 2.0 mph E3.2 kmh E 4.0 mph6.4 kmh 25.16 in852.0 mb 0.00 in0.0 mm 0.00 in0.0 mm 0.00 in0.0 mm
02:10 AM 50.2°F10.1°C -5537.2°C - 2.0 mph E3.2 kmh E 5.4 mph8.7 kmh 25.16 in852.0 mb 0.00 in0.0 mm 0.00 in0.0 mm 0.00 in0.0 mm
02:05 AM 48.7°F9.3°C -5537.2°C - Calm Calm -- 25.16 in852.0 mb 0.00 in0.0 mm 0.00 in0.0 mm 0.00 in0.0 mm
02:00 AM 48.6°F9.2°C -5537.2°C - Calm Calm 3.1 mph5.0 kmh 25.16 in852.0 mb 0.00 in0.0 mm 0.00 in0.0 mm 0.00 in0.0 mm
01:55 AM 47.1°F8.4°C -5537.2°C - 1.0 mph E1.6 kmh E 3.6 mph5.8 kmh 25.16 in852.0 mb 0.00 in0.0 mm 0.00 in0.0 mm 0.00 in0.0 mm
01:50 AM 47.5°F8.6°C -5537.2°C - 1.0 mph E1.6 kmh E 4.0 mph6.4 kmh 25.16 in852.0 mb 0.00 in0.0 mm 0.00 in0.0 mm 0.00 in0.0 mm
01:45 AM 47.8°F8.8°C -5537.2°C - 2.0 mph E3.2 kmh E 6.3 mph10.1 kmh 25.16 in852.0 mb 0.00 in0.0 mm 0.00 in0.0 mm 0.00 in0.0 mm
01:40 AM 47.7°F8.7°C -5537.2°C - 2.0 mph E3.2 kmh E 4.5 mph7.2 kmh 25.16 in852.0 mb 0.00 in0.0 mm 0.00 in0.0 mm 0.00 in0.0 mm
01:35 AM 48.6°F9.2°C -5537.2°C - 2.0 mph E3.2 kmh E 4.9 mph7.9 kmh 25.16 in852.0 mb 0.00 in0.0 mm 0.00 in0.0 mm 0.00 in0.0 mm
01:30 AM 50.0°F10.0°C -5537.2°C - 3.0 mph E4.8 kmh E 4.5 mph7.2 kmh 25.16 in852.0 mb 0.00 in0.0 mm 0.00 in0.0 mm 0.00 in0.0 mm
01:25 AM 48.7°F9.3°C -5537.2°C - 4.0 mph E6.4 kmh E 6.9 mph11.1 kmh 25.16 in852.0 mb 0.00 in0.0 mm 0.00 in0.0 mm 0.00 in0.0 mm
01:20 AM 49.3°F9.6°C -5537.2°C - 4.0 mph ESE6.4 kmh ESE 6.3 mph10.1 kmh 25.16 in852.0 mb 0.00 in0.0 mm 0.00 in0.0 mm 0.00 in0.0 mm
01:15 AM 50.5°F10.3°C -5537.2°C - 3.0 mph ESE4.8 kmh ESE 6.9 mph11.1 kmh 25.16 in852.0 mb 0.00 in0.0 mm 0.00 in0.0 mm 0.00 in0.0 mm
01:10 AM 48.9°F9.4°C -5537.2°C - 3.0 mph ESE4.8 kmh ESE 5.4 mph8.7 kmh 25.16 in852.0 mb 0.00 in0.0 mm 0.00 in0.0 mm 0.00 in0.0 mm
01:05 AM 48.7°F9.3°C -5537.2°C - 3.0 mph ESE4.8 kmh ESE 5.4 mph8.7 kmh 25.16 in852.0 mb 0.00 in0.0 mm 0.00 in0.0 mm 0.00 in0.0 mm
01:00 AM 49.8°F9.9°C -5537.2°C - 3.0 mph ESE4.8 kmh ESE 5.8 mph9.3 kmh 25.16 in852.0 mb 0.00 in0.0 mm 0.00 in0.0 mm 0.00 in0.0 mm
12:55 AM 50.9°F10.5°C -5537.2°C - 2.0 mph ESE3.2 kmh ESE 4.5 mph7.2 kmh 25.16 in852.0 mb 0.00 in0.0 mm 0.00 in0.0 mm 0.00 in0.0 mm
12:50 AM 51.4°F10.8°C -5537.2°C - 2.0 mph ESE3.2 kmh ESE 5.4 mph8.7 kmh 25.16 in852.0 mb 0.00 in0.0 mm 0.00 in0.0 mm 0.00 in0.0 mm
12:45 AM 49.6°F9.8°C -5537.2°C - 3.0 mph ESE4.8 kmh ESE 4.9 mph7.9 kmh 25.16 in852.0 mb 0.00 in0.0 mm 0.00 in0.0 mm 0.00 in0.0 mm
12:39 AM 50.5°F10.3°C -5537.2°C - 3.0 mph ESE4.8 kmh ESE 4.9 mph7.9 kmh 25.16 in852.0 mb 0.00 in0.0 mm 0.00 in0.0 mm 0.00 in0.0 mm
12:34 AM 52.5°F11.4°C -5537.2°C - 3.0 mph ESE4.8 kmh ESE 4.0 mph6.4 kmh 25.16 in852.0 mb 0.00 in0.0 mm 0.00 in0.0 mm 0.00 in0.0 mm
12:29 AM 52.7°F11.5°C -5537.2°C - 2.0 mph ESE3.2 kmh ESE 4.9 mph7.9 kmh 25.16 in852.0 mb 0.00 in0.0 mm 0.00 in0.0 mm 0.00 in0.0 mm
12:24 AM 52.3°F11.3°C -5537.2°C - 2.0 mph SE3.2 kmh SE 5.4 mph8.7 kmh 25.16 in852.0 mb 0.00 in0.0 mm 0.00 in0.0 mm 0.00 in0.0 mm
12:19 AM 52.9°F11.6°C -5537.2°C - 2.0 mph SE3.2 kmh SE 4.5 mph7.2 kmh 25.16 in852.0 mb 0.00 in0.0 mm 0.00 in0.0 mm 0.00 in0.0 mm
12:14 AM 52.0°F11.1°C -5537.2°C - 3.0 mph SE4.8 kmh SE 5.4 mph8.7 kmh 25.16 in852.0 mb 0.00 in0.0 mm 0.00 in0.0 mm 0.00 in0.0 mm
12:09 AM 52.5°F11.4°C -5537.2°C - 3.0 mph SE4.8 kmh SE 4.0 mph6.4 kmh 25.16 in852.0 mb 0.00 in0.0 mm 0.00 in0.0 mm 0.00 in0.0 mm
12:04 AM 52.5°F11.4°C -5537.2°C - 2.0 mph SE3.2 kmh SE 4.9 mph7.9 kmh 25.16 in852.0 mb 0.00 in0.0 mm 0.00 in0.0 mm 0.00 in0.0 mm
WeatherForYou.com, LLC is not responsible for any damages or problems caused by this service. Current weather conditions are obtained from the closest station including government and personal stations which may have varying degrees of accuracy. Weather forecasts are derived from the NOAA NDFD and obtained through HAMweather's Aeris Weather API. Like all things, this site belongs to Jesus Christ... He just trusts me to maintain it. If you have any questions or comments email webmaster@weatherforyou.com

Copyright © 2015, WeatherForYou.com LLC. All rights reserved.